createdAt,value
2017-03-11T00:00:22.319Z,82.82
2017-03-11T00:01:02.796Z,82.63
2017-03-11T00:01:43.196Z,83.01
2017-03-11T00:02:23.615Z,82.72
2017-03-11T00:03:04.032Z,83.01
2017-03-11T00:03:44.620Z,83.29
2017-03-11T00:04:24.975Z,83.01
2017-03-11T00:05:05.390Z,83.67
2017-03-11T00:05:46.680Z,83.39
2017-03-11T00:06:27.703Z,83.48
2017-03-11T00:07:08.095Z,83.48
2017-03-11T00:07:48.641Z,83.48
2017-03-11T00:08:29.025Z,83.67
2017-03-11T00:09:10.155Z,83.67
2017-03-11T00:10:59.586Z,83.67
2017-03-11T00:11:42.242Z,83.58
2017-03-11T00:12:24.324Z,83.58
2017-03-11T00:13:06.266Z,83.48
2017-03-11T00:13:56.232Z,83.58
2017-03-11T00:14:36.634Z,83.01
2017-03-11T00:15:17.701Z,83.2
2017-03-11T00:15:59.116Z,83.1
2017-03-11T00:16:42.701Z,83.1
2017-03-11T00:17:27.870Z,83.1
2017-03-11T00:19:47.617Z,83.29
2017-03-11T00:20:29.871Z,83.29
2017-03-11T00:21:10.289Z,82.82
2017-03-11T00:21:56.516Z,83.1
2017-03-11T00:22:40.882Z,83.1
2017-03-11T00:23:21.421Z,83.2
2017-03-11T00:24:03.423Z,83.1
2017-03-11T00:24:44.109Z,83.1
2017-03-11T00:25:24.532Z,83.06
2017-03-11T00:26:06.496Z,82.91
2017-03-11T00:26:47.600Z,83.67
2017-03-11T00:27:36.445Z,83.82
2017-03-11T00:28:20.601Z,84.05
2017-03-11T00:29:04.878Z,83.67
2017-03-11T00:29:47.977Z,83.63
2017-03-11T00:30:34.986Z,83.48
2017-03-11T00:31:18.988Z,83.48
2017-03-11T00:32:00.226Z,83.67
2017-03-11T00:32:40.657Z,83.67
2017-03-11T00:33:21.664Z,83.86
2017-03-11T00:34:05.482Z,83.95
2017-03-11T00:34:46.772Z,84.05
2017-03-11T00:35:29.488Z,83.76
2017-03-11T00:36:09.972Z,83.86
2017-03-11T00:36:52.063Z,83.48
2017-03-11T00:37:32.435Z,83.95
2017-03-11T00:38:12.868Z,84.23
2017-03-11T00:38:53.288Z,84.05
2017-03-11T00:39:33.751Z,83.95
2017-03-11T00:40:15.119Z,84.05
2017-03-11T00:40:55.514Z,83.86
2017-03-11T00:41:35.885Z,84.05
2017-03-11T00:42:18.171Z,83.71
2017-03-11T00:42:58.643Z,83.71
2017-03-11T00:43:40.915Z,83.9
2017-03-11T00:44:21.297Z,83.05
2017-03-11T00:45:04.625Z,83.05
2017-03-11T00:45:45.058Z,82.95
2017-03-11T00:46:25.481Z,83.24
2017-03-11T00:47:05.935Z,82.95
2017-03-11T00:47:46.320Z,82.76
2017-03-11T00:48:30.030Z,82.81
2017-03-11T00:49:11.064Z,82.81
2017-03-11T00:49:51.543Z,82.62
2017-03-11T00:50:31.958Z,82.62
2017-03-11T00:51:12.371Z,81.76
2017-03-11T00:51:52.778Z,82.05
2017-03-11T00:52:34.191Z,82.05
2017-03-11T00:53:15.329Z,81.48
2017-03-11T00:53:55.708Z,81.67
2017-03-11T00:54:36.682Z,81.86
2017-03-11T00:55:17.106Z,81.95
2017-03-11T00:55:57.517Z,81.86
2017-03-11T00:56:39.915Z,82.05
2017-03-11T00:57:26.012Z,81.57
2017-03-11T00:58:06.416Z,81.67
2017-03-11T00:58:46.825Z,81.57
2017-03-11T00:59:27.271Z,81.57
2017-03-11T01:00:09.521Z,81.67
2017-03-11T01:00:52.531Z,81.67
2017-03-11T01:01:33.528Z,81.76
2017-03-11T01:02:14.618Z,81.43
2017-03-11T01:03:09.715Z,81.52
2017-03-11T01:03:50.085Z,81.62
2017-03-11T01:04:32.234Z,81.52
2017-03-11T01:05:14.418Z,81.62
2017-03-11T01:05:54.837Z,81.33
2017-03-11T01:06:35.336Z,81.33
2017-03-11T01:07:15.711Z,81.33
2017-03-11T01:07:56.897Z,81.14
2017-03-11T01:08:37.931Z,81.14
2017-03-11T01:09:18.335Z,81.14
2017-03-11T01:09:58.829Z,81.14
2017-03-11T01:10:41.013Z,81.24
2017-03-11T01:11:21.394Z,81.24
2017-03-11T01:12:04.400Z,81.24
2017-03-11T01:12:45.489Z,81.05
2017-03-11T01:13:25.938Z,80.95
2017-03-11T01:14:06.435Z,81.05
2017-03-11T01:14:47.520Z,81.05
2017-03-11T01:15:27.969Z,81.05
2017-03-11T01:16:08.377Z,80.67
2017-03-11T01:16:48.797Z,80.67
2017-03-11T01:17:31.083Z,80.76
2017-03-11T01:18:11.491Z,80.76
2017-03-11T01:18:51.991Z,80.57
2017-03-11T01:19:32.483Z,80.86
2017-03-11T01:20:12.817Z,80.67
2017-03-11T01:20:53.236Z,80.86
2017-03-11T01:21:33.623Z,80.67
2017-03-11T01:22:14.042Z,81.05
2017-03-11T01:22:55.173Z,80.76
2017-03-11T01:23:35.541Z,80.86
2017-03-11T01:24:16.127Z,80.48
2017-03-11T01:24:56.512Z,80.76
2017-03-11T01:25:36.981Z,80.57
2017-03-11T01:26:17.345Z,80.57
2017-03-11T01:26:57.794Z,80.48
2017-03-11T01:27:39.005Z,80.38
2017-03-11T01:28:20.021Z,80.76
2017-03-11T01:29:00.440Z,80.44
2017-03-11T01:29:40.858Z,80.63
2017-03-11T01:30:21.335Z,80.53
2017-03-11T01:31:01.719Z,81.01
2017-03-11T01:31:43.084Z,81.1
2017-03-11T01:32:23.492Z,81.2
2017-03-11T01:33:03.915Z,81.2
2017-03-11T01:33:44.346Z,81.67
2017-03-11T01:34:24.818Z,81.57
2017-03-11T01:35:05.291Z,81.29
2017-03-11T01:35:45.728Z,81.86
2017-03-11T01:36:26.097Z,81.76
2017-03-11T01:37:06.522Z,81.86
2017-03-11T01:37:47.791Z,81.86
2017-03-11T01:38:28.212Z,81.86
2017-03-11T01:39:08.558Z,82.05
2017-03-11T01:39:48.962Z,82.24
2017-03-11T01:40:29.385Z,82.2
2017-03-11T01:41:09.923Z,82.01
2017-03-11T01:41:50.374Z,81.82
2017-03-11T01:42:30.791Z,82.67
2017-03-11T01:43:11.249Z,82.39
2017-03-11T01:43:51.683Z,82.57
2017-03-11T01:44:34.425Z,82.39
2017-03-11T01:45:15.485Z,82.29
2017-03-11T01:45:56.952Z,82.48
2017-03-11T01:46:38.991Z,82.67
2017-03-11T01:47:19.499Z,82.86
2017-03-11T01:47:59.917Z,82.86
2017-03-11T01:48:40.343Z,83.05
2017-03-11T01:49:20.771Z,82.76
2017-03-11T01:50:03.692Z,83.05
2017-03-11T01:50:44.087Z,82.86
2017-03-11T01:51:24.583Z,83.24
2017-03-11T01:52:04.917Z,83.24
2017-03-11T01:52:45.411Z,83.33
2017-03-11T01:53:25.833Z,83.14
2017-03-11T01:54:07.228Z,83.14
2017-03-11T01:54:47.660Z,83.24
2017-03-11T01:55:28.615Z,82.95
2017-03-11T01:56:09.615Z,83.05
2017-03-11T01:56:50.074Z,83.24
2017-03-11T01:57:30.448Z,83.05
2017-03-11T01:58:10.836Z,83.05
2017-03-11T01:58:52.177Z,83.1
2017-03-11T01:59:32.582Z,82.86
2017-03-11T02:00:13.705Z,83.24
2017-03-11T02:00:54.141Z,83.33
2017-03-11T02:01:34.487Z,83.1
2017-03-11T02:02:14.920Z,83.52
2017-03-11T02:02:56.220Z,83.2
2017-03-11T02:03:36.666Z,83.2
2017-03-11T02:04:17.655Z,83.2
2017-03-11T02:04:59.087Z,83.58
2017-03-11T02:05:39.587Z,83.29
2017-03-11T02:06:21.463Z,83.29
2017-03-11T02:07:01.835Z,83.2
2017-03-11T02:07:42.328Z,83.29
2017-03-11T02:08:22.813Z,83.01
2017-03-11T02:09:03.272Z,83.01
2017-03-11T02:09:43.688Z,83.67
2017-03-11T02:10:24.778Z,83.86
2017-03-11T02:11:05.230Z,83.76
2017-03-11T02:11:45.623Z,83.67
2017-03-11T02:12:26.004Z,83.48
2017-03-11T02:13:06.411Z,83.48
2017-03-11T02:13:46.830Z,84.05
2017-03-11T02:14:27.961Z,84.14
2017-03-11T02:15:08.353Z,84.23
2017-03-11T02:15:49.444Z,83.95
2017-03-11T02:16:29.933Z,84.42
2017-03-11T02:17:11.294Z,84.52
2017-03-11T02:17:52.353Z,84.61
2017-03-11T02:18:33.528Z,84.61
2017-03-11T02:19:13.873Z,84.52
2017-03-11T02:19:54.322Z,84.58
2017-03-11T02:20:34.788Z,84.67
2017-03-11T02:21:15.207Z,84.77
2017-03-11T02:21:55.576Z,84.95
2017-03-11T02:22:36.063Z,85.14
2017-03-11T02:23:16.492Z,85.24
2017-03-11T02:23:56.819Z,85.42
2017-03-11T02:24:37.219Z,85.52
2017-03-11T02:25:17.738Z,85.33
2017-03-11T02:25:58.915Z,85.33
2017-03-11T02:26:39.397Z,85.24
2017-03-11T02:27:20.467Z,84.77
2017-03-11T02:28:01.751Z,85.24
2017-03-11T02:28:42.984Z,85.14
2017-03-11T02:29:23.452Z,85.05
2017-03-11T02:30:03.860Z,84.86
2017-03-11T02:30:44.316Z,84.77
2017-03-11T02:31:26.943Z,84.86
2017-03-11T02:32:07.370Z,84.95
2017-03-11T02:32:48.623Z,85.24
2017-03-11T02:33:29.770Z,85.14
2017-03-11T02:34:10.193Z,85.33
2017-03-11T02:34:50.575Z,85.14
2017-03-11T02:35:30.994Z,85.14
2017-03-11T02:36:12.148Z,85.33
2017-03-11T02:36:53.249Z,85.14
2017-03-11T02:37:33.698Z,84.77
2017-03-11T02:38:15.036Z,85.42
2017-03-11T02:38:55.528Z,85.42
2017-03-11T02:39:35.922Z,85.61
2017-03-11T02:40:16.342Z,85.33
2017-03-11T02:40:56.727Z,85.33
2017-03-11T02:41:37.639Z,84.95
2017-03-11T02:42:18.103Z,85.05
2017-03-11T02:42:58.482Z,85.14
2017-03-11T02:43:39.306Z,85.24
2017-03-11T02:44:19.765Z,84.67
2017-03-11T02:45:00.181Z,85.24
2017-03-11T02:45:40.601Z,84.86
2017-03-11T02:46:21.001Z,84.58
2017-03-11T02:47:01.367Z,84.39
2017-03-11T02:47:41.933Z,84.86
2017-03-11T02:48:25.617Z,85.05
2017-03-11T02:49:07.531Z,85.14
2017-03-11T02:49:49.442Z,84.95
2017-03-11T02:50:29.858Z,85.24
2017-03-11T02:51:10.268Z,85.14
2017-03-11T02:51:51.473Z,84.95
2017-03-11T02:52:31.851Z,84.86
2017-03-11T02:53:12.254Z,85.24
2017-03-11T02:53:52.704Z,84.77
2017-03-11T02:54:33.140Z,85.24
2017-03-11T02:55:13.564Z,85.14
2017-03-11T02:55:53.971Z,84.77
2017-03-11T02:56:35.273Z,85.42
2017-03-11T02:57:15.680Z,85.52
2017-03-11T02:57:56.082Z,85.42
2017-03-11T02:58:36.444Z,84.86
2017-03-11T02:59:16.914Z,85.33
2017-03-11T02:59:57.310Z,84.77
2017-03-11T03:00:37.681Z,85.33
2017-03-11T03:01:18.115Z,85.42
2017-03-11T03:02:00.192Z,85.61
2017-03-11T03:02:40.670Z,85.52
2017-03-11T03:03:22.602Z,85.14
2017-03-11T03:04:04.460Z,85.14
2017-03-11T03:04:44.888Z,85.24
2017-03-11T03:05:25.322Z,85.24
2017-03-11T03:06:05.730Z,84.86
2017-03-11T03:06:47.632Z,85.05
2017-03-11T03:07:29.508Z,85.33
2017-03-11T03:08:09.989Z,85.24
2017-03-11T03:08:50.504Z,85.61
2017-03-11T03:09:30.888Z,85.24
2017-03-11T03:10:11.348Z,85.14
2017-03-11T03:10:51.737Z,85.33
2017-03-11T03:11:33.053Z,85.42
2017-03-11T03:12:13.945Z,85.33
2017-03-11T03:12:54.288Z,85.8
2017-03-11T03:13:34.712Z,85.8
2017-03-11T03:14:15.082Z,85.71
2017-03-11T03:14:55.554Z,85.8
2017-03-11T03:15:35.965Z,85.9
2017-03-11T03:16:17.927Z,85.8
2017-03-11T03:16:58.407Z,85.42
2017-03-11T03:17:38.841Z,85.33
2017-03-11T03:18:21.202Z,85.42
2017-03-11T03:19:01.578Z,85.33
2017-03-11T03:19:41.979Z,85.52
2017-03-11T03:20:22.392Z,85.24
2017-03-11T03:21:03.712Z,85.24
2017-03-11T03:21:44.597Z,85.52
2017-03-11T03:22:25.011Z,85.9
2017-03-11T03:23:05.445Z,85.52
2017-03-11T03:23:45.875Z,85.14
2017-03-11T03:24:26.275Z,85.33
2017-03-11T03:25:06.776Z,85.42
2017-03-11T03:25:47.135Z,85.52
2017-03-11T03:26:27.527Z,85.42
2017-03-11T03:27:07.970Z,85.52
2017-03-11T03:27:48.424Z,85.33
2017-03-11T03:28:28.757Z,85.33
2017-03-11T03:29:09.943Z,85.33
2017-03-11T03:29:50.379Z,85.61
2017-03-11T03:30:31.447Z,85.05
2017-03-11T03:31:11.816Z,85.42
2017-03-11T03:31:52.279Z,84.77
2017-03-11T03:32:32.675Z,84.77
2017-03-11T03:33:13.023Z,85.42
2017-03-11T03:33:53.623Z,85.42
2017-03-11T03:34:34.005Z,85.33
2017-03-11T03:35:14.916Z,85.52
2017-03-11T03:35:55.356Z,85.42
2017-03-11T03:36:35.754Z,84.77
2017-03-11T03:37:16.205Z,85.52
2017-03-11T03:37:56.534Z,85.05
2017-03-11T03:38:36.949Z,84.86
2017-03-11T03:39:17.393Z,85.05
2017-03-11T03:39:57.799Z,85.14
2017-03-11T03:40:38.189Z,85.24
2017-03-11T03:41:18.570Z,85.8
2017-03-11T03:41:59.050Z,85.24
2017-03-11T03:42:39.435Z,85.33
2017-03-11T03:43:19.903Z,85.52
2017-03-11T03:44:00.283Z,85.33
2017-03-11T03:44:40.648Z,85.42
2017-03-11T03:45:21.092Z,85.14
2017-03-11T03:46:01.467Z,85.33
2017-03-11T03:46:41.880Z,85.52
2017-03-11T03:47:22.281Z,85.42
2017-03-11T03:48:02.751Z,85.52
2017-03-11T03:48:43.143Z,85.42
2017-03-11T03:49:23.583Z,85.05
2017-03-11T03:50:03.975Z,85.42
2017-03-11T03:50:44.361Z,85.61
2017-03-11T03:51:24.802Z,85.61
2017-03-11T03:52:05.251Z,85.71
2017-03-11T03:52:45.633Z,85.52
2017-03-11T03:53:26.045Z,85.71
2017-03-11T03:54:06.423Z,85.61
2017-03-11T03:54:46.910Z,86.28
2017-03-11T03:55:27.384Z,86.18
2017-03-11T03:56:07.862Z,85.99
2017-03-11T03:56:48.373Z,85.8
2017-03-11T03:57:29.722Z,85.8
2017-03-11T03:58:10.132Z,85.99
2017-03-11T03:58:50.518Z,85.99
2017-03-11T03:59:30.972Z,86.09
2017-03-11T04:00:11.406Z,86.14
2017-03-11T04:00:51.824Z,85.95
2017-03-11T04:01:32.256Z,85.8
2017-03-11T04:02:13.196Z,86.09
2017-03-11T04:02:53.727Z,86.14
2017-03-11T04:03:35.535Z,86.18
2017-03-11T04:04:32.427Z,85.9
2017-03-11T04:05:12.841Z,86.04
2017-03-11T04:06:10.920Z,86.14
2017-03-11T04:06:52.957Z,85.76
2017-03-11T04:07:34.080Z,85.76
2017-03-11T04:08:14.510Z,86.14
2017-03-11T04:08:56.732Z,86.52
2017-03-11T04:09:37.122Z,86.42
2017-03-11T04:10:17.580Z,86.33
2017-03-11T04:10:58.774Z,86.42
2017-03-11T04:11:39.944Z,86.9
2017-03-11T04:12:20.347Z,86.8
2017-03-11T04:13:00.795Z,86.9
2017-03-11T04:13:41.175Z,86.8
2017-03-11T04:14:23.532Z,86.8
2017-03-11T04:15:05.466Z,86.99
2017-03-11T04:15:47.708Z,87.27
2017-03-11T04:16:28.183Z,86.33
2017-03-11T04:17:12.044Z,86.42
2017-03-11T04:17:52.428Z,86.23
2017-03-11T04:18:34.422Z,86.42
2017-03-11T04:23:55.749Z,85.95
2017-03-11T04:24:36.366Z,86.14
2017-03-11T04:25:16.751Z,86.33
2017-03-11T04:25:57.882Z,86.61
2017-03-11T04:26:38.404Z,86.42
2017-03-11T04:27:18.779Z,86.23
2017-03-11T04:27:59.205Z,86.52
2017-03-11T04:28:40.145Z,86.42
2017-03-11T04:29:20.542Z,86.23
2017-03-11T04:30:00.926Z,86.23
2017-03-11T04:30:44.042Z,86.23
2017-03-11T04:31:24.430Z,86.33
2017-03-11T04:32:07.566Z,86.42
2017-03-11T04:32:47.980Z,87.27
2017-03-11T04:33:28.421Z,86.99
2017-03-11T04:34:08.771Z,86.9
2017-03-11T04:34:49.216Z,86.9
2017-03-11T04:35:29.614Z,86.9
2017-03-11T04:36:10.642Z,86.8
2017-03-11T04:36:51.632Z,87.18
2017-03-11T04:37:32.059Z,86.99
2017-03-11T04:38:12.650Z,86.71
2017-03-11T04:38:53.060Z,87.65
2017-03-11T04:39:34.283Z,87.08
2017-03-11T04:40:15.311Z,87.27
2017-03-11T04:40:55.667Z,87.27
2017-03-11T04:41:36.092Z,87.37
2017-03-11T04:42:16.510Z,87.55
2017-03-11T04:42:57.794Z,87.46
2017-03-11T04:43:39.074Z,87.37
2017-03-11T04:44:20.192Z,87.46
2017-03-11T04:45:00.594Z,87.55
2017-03-11T04:47:20.148Z,87.18
2017-03-11T04:48:01.472Z,88.12
2017-03-11T04:49:50.230Z,87.84
2017-03-11T04:50:30.677Z,88.12
2017-03-11T04:51:11.099Z,87.84
2017-03-11T04:51:51.511Z,87.93
2017-03-11T04:52:31.918Z,87.84
2017-03-11T04:53:12.303Z,87.46
2017-03-11T04:53:52.718Z,87.46
2017-03-11T04:54:33.161Z,87.27
2017-03-11T04:55:13.591Z,87.27
2017-03-11T04:55:54.032Z,87.18
2017-03-11T04:56:34.425Z,87.46
2017-03-11T04:57:14.842Z,86.8
2017-03-11T04:57:55.294Z,86.99
2017-03-11T04:58:35.687Z,87.04
2017-03-11T04:59:16.109Z,87.04
2017-03-11T04:59:56.490Z,86.9
2017-03-11T05:00:36.924Z,87.13
2017-03-11T05:01:17.333Z,86.94
2017-03-11T05:01:57.742Z,86.75
2017-03-11T05:02:38.151Z,86.94
2017-03-11T05:03:18.631Z,86.85
2017-03-11T05:03:59.036Z,86.85
2017-03-11T05:04:39.480Z,86.85
2017-03-11T05:05:19.931Z,86.75
2017-03-11T05:06:00.413Z,87.23
2017-03-11T05:06:40.770Z,86.94
2017-03-11T05:07:21.345Z,86.94
2017-03-11T05:08:02.031Z,87.51
2017-03-11T05:08:42.493Z,87.32
2017-03-11T05:09:22.893Z,87.23
2017-03-11T05:10:03.297Z,87.6
2017-03-11T05:10:44.707Z,87.32
2017-03-11T05:11:25.686Z,86.85
2017-03-11T05:12:06.213Z,87.32
2017-03-11T05:12:49.558Z,86.75
2017-03-11T05:13:29.966Z,87.04
2017-03-11T05:14:10.385Z,86.28
2017-03-11T05:14:50.832Z,86.28
2017-03-11T05:15:31.807Z,86.18
2017-03-11T05:16:12.238Z,86.56
2017-03-11T05:16:52.694Z,86.47
2017-03-11T05:17:36.674Z,86.47
2017-03-11T05:18:20.794Z,86.66
2017-03-11T05:19:01.239Z,86.28
2017-03-11T05:19:41.655Z,85.8
2017-03-11T05:20:22.073Z,85.99
2017-03-11T05:21:02.481Z,86.09
2017-03-11T05:21:42.908Z,86.47
2017-03-11T05:22:23.339Z,86.28
2017-03-11T05:23:03.782Z,86.09
2017-03-11T05:23:44.151Z,86.18
2017-03-11T05:24:24.517Z,86.09
2017-03-11T05:25:04.995Z,86.18
2017-03-11T05:25:45.422Z,86.75
2017-03-11T05:26:26.582Z,86.56
2017-03-11T05:27:06.890Z,86.66
2017-03-11T05:27:47.374Z,86.56
2017-03-11T05:28:27.820Z,86.56
2017-03-11T05:29:08.196Z,86.28
2017-03-11T05:29:49.586Z,86.66
2017-03-11T05:30:30.002Z,86.9
2017-03-11T05:31:10.595Z,86.99
2017-03-11T05:31:51.047Z,86.71
2017-03-11T05:32:31.569Z,86.71
2017-03-11T05:33:12.026Z,86.9
2017-03-11T05:33:52.490Z,86.99
2017-03-11T05:34:32.891Z,87.08
2017-03-11T05:35:13.309Z,87.27
2017-03-11T05:35:53.808Z,86.99
2017-03-11T05:36:34.211Z,86.8
2017-03-11T05:37:14.658Z,87.55
2017-03-11T05:37:55.065Z,87.55
2017-03-11T05:38:35.556Z,87.46
2017-03-11T05:39:15.950Z,87.46
2017-03-11T05:39:56.363Z,87.46
2017-03-11T05:40:36.773Z,87.27
2017-03-11T05:41:17.183Z,87.46
2017-03-11T05:41:57.591Z,88.03
2017-03-11T05:42:38.839Z,87.84
2017-03-11T05:43:19.249Z,87.84
2017-03-11T05:43:59.672Z,87.84
2017-03-11T05:44:40.093Z,87.84
2017-03-11T05:45:20.551Z,87.84
2017-03-11T05:46:00.979Z,88.12
2017-03-11T05:46:41.493Z,88.12
2017-03-11T05:47:21.875Z,88.03
2017-03-11T05:48:02.329Z,88.12
2017-03-11T05:48:42.715Z,88.03
2017-03-11T05:49:23.078Z,87.93
2017-03-11T05:50:03.506Z,88.22
2017-03-11T05:50:43.929Z,88.03
2017-03-11T05:51:24.328Z,88.55
2017-03-11T05:52:04.766Z,89.12
2017-03-11T05:52:45.711Z,89.02
2017-03-11T05:53:26.131Z,89.02
2017-03-11T05:54:06.539Z,88.93
2017-03-11T05:54:47.712Z,88.93
2017-03-11T05:55:28.102Z,88.83
2017-03-11T05:56:08.538Z,88.74
2017-03-11T05:56:48.943Z,88.74
2017-03-11T05:57:29.368Z,89.02
2017-03-11T05:58:09.798Z,89.12
2017-03-11T05:58:50.244Z,89.02
2017-03-11T05:59:30.584Z,88.83
2017-03-11T06:00:11.067Z,88.64
2017-03-11T06:00:52.355Z,88.45
2017-03-11T06:01:32.799Z,88.26
2017-03-11T06:02:13.195Z,88.26
2017-03-11T06:02:53.635Z,87.98
2017-03-11T06:03:34.034Z,87.98
2017-03-11T06:04:14.409Z,87.88
2017-03-11T06:04:54.834Z,88.26
2017-03-11T06:05:36.055Z,87.98
2017-03-11T06:06:16.500Z,87.88
2017-03-11T06:06:56.891Z,88.17
2017-03-11T06:07:37.908Z,87.88
2017-03-11T06:08:18.315Z,87.98
2017-03-11T06:08:58.785Z,88.36
2017-03-11T06:09:39.214Z,88.17
2017-03-11T06:10:19.659Z,87.98
2017-03-11T06:11:00.035Z,87.88
2017-03-11T06:11:40.489Z,88.64
2017-03-11T06:12:20.962Z,88.07
2017-03-11T06:13:01.309Z,88.26
2017-03-11T06:13:41.741Z,87.98
2017-03-11T06:14:22.192Z,88.93
2017-03-11T06:15:02.598Z,89.02
2017-03-11T06:15:42.999Z,89.02
2017-03-11T06:16:23.386Z,88.87
2017-03-11T06:17:03.771Z,88.78
2017-03-11T06:17:44.185Z,89.06
2017-03-11T06:18:24.576Z,89.06
2017-03-11T06:19:05.012Z,88.97
2017-03-11T06:19:45.415Z,88.78
2017-03-11T06:20:25.794Z,88.87
2017-03-11T06:21:06.224Z,88.87
2017-03-11T06:21:46.661Z,88.78
2017-03-11T06:22:27.055Z,88.97
2017-03-11T06:23:07.468Z,88.68
2017-03-11T06:23:47.935Z,88.02
2017-03-11T06:24:28.328Z,88.59
2017-03-11T06:25:08.744Z,88.4
2017-03-11T06:25:49.095Z,88.12
2017-03-11T06:26:29.512Z,88.31
2017-03-11T06:27:09.892Z,87.84
2017-03-11T06:27:50.290Z,88.21
2017-03-11T06:28:30.684Z,88.02
2017-03-11T06:29:12.102Z,88.12
2017-03-11T06:29:52.481Z,88.21
2017-03-11T06:30:32.904Z,87.84
2017-03-11T06:31:14.261Z,88.59
2017-03-11T06:31:54.705Z,88.97
2017-03-11T06:32:35.105Z,89.06
2017-03-11T06:33:15.531Z,89.06
2017-03-11T06:33:56.848Z,88.87
2017-03-11T06:34:37.294Z,88.78
2017-03-11T06:35:18.560Z,88.59
2017-03-11T06:35:58.987Z,88.68
2017-03-11T06:36:39.407Z,88.68
2017-03-11T06:37:19.871Z,88.59
2017-03-11T06:38:00.339Z,88.59
2017-03-11T06:38:40.760Z,88.49
2017-03-11T06:39:21.115Z,88.97
2017-03-11T06:40:04.074Z,89.06
2017-03-11T06:40:44.520Z,88.97
2017-03-11T06:41:25.836Z,88.92
2017-03-11T06:42:06.249Z,89.11
2017-03-11T06:42:47.348Z,88.73
2017-03-11T06:43:27.784Z,88.82
2017-03-11T06:44:08.837Z,89.01
2017-03-11T06:44:49.206Z,89.01
2017-03-11T06:45:29.632Z,88.73
2017-03-11T06:46:10.155Z,88.82
2017-03-11T06:46:50.528Z,88.54
2017-03-11T06:47:30.951Z,88.92
2017-03-11T06:48:11.336Z,89.11
2017-03-11T06:48:51.785Z,88.54
2017-03-11T06:49:33.081Z,89.44
2017-03-11T06:50:13.548Z,89.06
2017-03-11T06:50:55.913Z,89.25
2017-03-11T06:51:36.513Z,88.4
2017-03-11T06:52:17.222Z,88.87
2017-03-11T06:52:58.519Z,89.15
2017-03-11T06:53:41.642Z,88.96
2017-03-11T06:54:23.242Z,89.25
2017-03-11T06:55:06.145Z,89.25
2017-03-11T06:55:48.306Z,88.68
2017-03-11T06:56:29.711Z,88.78
2017-03-11T06:57:10.990Z,88.49
2017-03-11T06:57:52.232Z,88.49
2017-03-11T06:58:32.679Z,88.78
2017-03-11T06:59:13.043Z,88.68
2017-03-11T06:59:53.456Z,89.11
2017-03-11T07:00:34.565Z,89.2
2017-03-11T07:01:14.992Z,89.29
2017-03-11T07:01:55.756Z,89.29
2017-03-11T07:02:36.175Z,88.54
2017-03-11T07:03:16.776Z,88.06
2017-03-11T07:03:57.987Z,88.54
2017-03-11T07:04:38.406Z,88.82
2017-03-11T07:05:18.885Z,89.11
2017-03-11T07:05:59.612Z,88.44
2017-03-11T07:06:43.851Z,88.25
2017-03-11T07:07:24.221Z,88.2
2017-03-11T07:08:10.344Z,88.39
2017-03-11T07:08:54.095Z,88.2
2017-03-11T07:11:30.409Z,87.63
2017-03-11T07:12:13.559Z,87.54
2017-03-11T07:14:03.395Z,87.45
2017-03-11T07:16:18.630Z,86.97
2017-03-11T07:17:01.759Z,87.16
2017-03-11T07:17:42.204Z,87.16
2017-03-11T07:19:58.650Z,87.68
2017-03-11T07:20:38.707Z,87.58
2017-03-11T07:21:19.129Z,88.15
2017-03-11T07:21:59.519Z,88.29
2017-03-11T07:22:39.937Z,87.72
2017-03-11T07:23:20.384Z,87.62
2017-03-11T07:24:00.822Z,87.38
2017-03-11T07:24:41.270Z,87.19
2017-03-11T07:25:21.716Z,86.91
2017-03-11T07:26:02.152Z,86.47
2017-03-11T07:26:42.600Z,86.47
2017-03-11T07:27:23.033Z,85.81
2017-03-11T07:28:03.468Z,85.24
2017-03-11T07:28:43.903Z,84.86
2017-03-11T07:29:24.327Z,84.62
2017-03-11T07:30:04.766Z,83.95
2017-03-11T07:30:45.187Z,83.48
2017-03-11T07:31:25.639Z,83
2017-03-11T07:32:06.079Z,82.76
2017-03-11T07:32:46.516Z,83.04
2017-03-11T07:33:26.938Z,82.38
2017-03-11T07:34:07.395Z,82.09
2017-03-11T07:34:47.960Z,82.42
2017-03-11T07:35:28.492Z,81.95
2017-03-11T07:36:08.861Z,81.47
2017-03-11T07:36:49.344Z,80.8
2017-03-11T07:37:32.501Z,79.99
2017-03-11T07:38:13.528Z,79.6
2017-03-11T07:38:55.700Z,79.51
2017-03-11T07:39:36.108Z,79.32
2017-03-11T07:41:54.885Z,79.22
2017-03-11T07:42:42.908Z,79.22
2017-03-11T07:43:23.803Z,79.47
2017-03-11T07:45:42.278Z,79.6
2017-03-11T07:46:31.583Z,79.22
2017-03-11T07:47:19.758Z,79.41
2017-03-11T07:48:08.092Z,78.85
2017-03-11T07:48:55.536Z,78.65
2017-03-11T07:49:43.771Z,78.41
2017-03-11T07:51:34.622Z,77.45
2017-03-11T07:52:23.427Z,77.36
2017-03-11T07:53:11.558Z,77.45
2017-03-11T07:54:59.681Z,77.7
2017-03-11T07:56:51.408Z,77.22
2017-03-11T07:57:39.878Z,77.32
2017-03-11T07:59:28.413Z,77.76
2017-03-11T08:00:17.213Z,77.95
2017-03-11T08:01:04.718Z,78.14
2017-03-11T08:01:53.115Z,78.14
2017-03-11T08:02:41.200Z,78.61
2017-03-11T08:03:29.625Z,78.33
2017-03-11T08:04:18.688Z,78.14
2017-03-11T08:06:38.881Z,78.67
2017-03-11T08:08:31.089Z,78.86
2017-03-11T08:10:22.079Z,78.57
2017-03-11T08:12:43.437Z,77.91
2017-03-11T08:13:31.995Z,78.38
2017-03-11T08:14:21.159Z,77.39
2017-03-11T08:15:13.112Z,77.58
2017-03-11T08:17:38.476Z,77.77
2017-03-11T08:18:27.167Z,77.39
2017-03-11T08:20:48.170Z,77.39
2017-03-11T08:21:37.234Z,77.11
2017-03-11T08:23:59.844Z,77.58
2017-03-11T08:24:49.066Z,77.3
2017-03-11T08:25:39.933Z,77.39
2017-03-11T08:28:01.139Z,77.3
2017-03-11T08:30:23.756Z,77.36
2017-03-11T08:31:11.054Z,77.26
2017-03-11T08:33:32.320Z,77.17
2017-03-11T08:34:20.929Z,77.36
2017-03-11T08:35:09.485Z,77.26
2017-03-11T08:35:57.946Z,76.78
2017-03-11T08:36:46.433Z,76.88
2017-03-11T08:37:34.883Z,76.97
2017-03-11T08:38:22.261Z,76.21
2017-03-11T08:39:11.140Z,76.31
2017-03-11T08:40:00.239Z,76.21
2017-03-11T08:40:48.341Z,76.31
2017-03-11T08:42:38.397Z,76.21
2017-03-11T08:43:24.977Z,75.93
2017-03-11T08:44:13.739Z,75.96
2017-03-11T08:45:02.240Z,76.25
2017-03-11T08:45:50.691Z,75.49
2017-03-11T08:46:39.352Z,74.54
2017-03-11T08:47:27.679Z,74.82
2017-03-11T08:48:16.387Z,74.35
2017-03-11T08:49:04.851Z,74.44
2017-03-11T08:49:55.479Z,74.16
2017-03-11T08:50:40.416Z,74.77
2017-03-11T08:51:20.978Z,74.77
2017-03-11T08:52:02.255Z,74.39
2017-03-11T08:52:43.450Z,74.1
2017-03-11T08:53:24.430Z,73.57
2017-03-11T08:54:04.810Z,73.19
2017-03-11T08:54:45.297Z,73.19
2017-03-11T08:55:25.721Z,72.9
2017-03-11T08:56:07.099Z,72.62
2017-03-11T08:56:47.578Z,72.52
2017-03-11T08:57:27.965Z,72.52
2017-03-11T08:58:08.951Z,73
2017-03-11T08:58:52.090Z,72.81
2017-03-11T08:59:33.851Z,72.33
2017-03-11T09:00:14.237Z,72.52
2017-03-11T09:00:54.683Z,72.52
2017-03-11T09:01:36.067Z,72.14
2017-03-11T09:02:16.445Z,72.05
2017-03-11T09:02:57.174Z,72.24
2017-03-11T09:03:38.011Z,72.71
2017-03-11T09:04:18.479Z,72.52
2017-03-11T09:04:59.431Z,72.27
2017-03-11T09:05:39.898Z,71.7
2017-03-11T09:06:20.695Z,71.61
2017-03-11T09:07:01.113Z,71.61
2017-03-11T09:07:41.587Z,71.61
2017-03-11T09:08:28.535Z,71.8
2017-03-11T09:09:08.957Z,71.42
2017-03-11T09:09:50.092Z,71.98
2017-03-11T09:10:31.348Z,71.55
2017-03-11T09:11:11.803Z,72.12
2017-03-11T09:11:52.245Z,71.96
2017-03-11T09:12:32.625Z,71.48
2017-03-11T09:13:13.098Z,70.53
2017-03-11T09:13:53.549Z,69.77
2017-03-11T09:14:34.709Z,69.2
2017-03-11T09:15:15.715Z,69.1
2017-03-11T09:15:56.174Z,69.1
2017-03-11T09:16:36.526Z,69.1
2017-03-11T09:17:17.015Z,69.1
2017-03-11T09:17:57.760Z,69.71
2017-03-11T09:18:37.976Z,69.71
2017-03-11T09:19:18.432Z,69.23
2017-03-11T09:19:58.868Z,68.88
2017-03-11T09:20:39.249Z,68.32
2017-03-11T09:21:19.616Z,68.86
2017-03-11T09:22:00.320Z,68.23
2017-03-11T09:22:42.446Z,67.11
2017-03-11T09:23:22.992Z,66.28
2017-03-11T09:24:03.466Z,65.36
2017-03-11T09:24:44.090Z,64.59
2017-03-11T09:25:24.757Z,63.54
2017-03-11T09:26:05.141Z,62.97
2017-03-11T09:26:45.669Z,62.97
2017-03-11T09:27:28.814Z,62.59
2017-03-11T09:28:09.423Z,62.68
2017-03-11T09:28:53.446Z,62.55
2017-03-11T09:29:35.726Z,63.03
2017-03-11T09:30:16.167Z,63.39
2017-03-11T09:30:57.532Z,63.19
2017-03-11T09:31:39.486Z,63.54
2017-03-11T09:32:20.352Z,64.12
2017-03-11T09:33:00.907Z,64.02
2017-03-11T09:33:41.915Z,63.93
2017-03-11T09:34:23.061Z,64.02
2017-03-11T09:35:04.101Z,64.59
2017-03-11T09:35:45.037Z,64.69